Time;durP1;ratioP1;P1;durP2;ratioP2;P2;SDS_P1;SDS_P2;PMS_P1;PMS_P2;Temp;Humidity;BMP_temperature;BMP_pressure;BME280_temperature;BME280_humidity;BME280_pressure;Samples;Min_cycle;Max_cycle;Signal;HPM_P1;HPM_P2
2022/07/05 00:00:55;;;;;;;10.02;3.33;;;;;;;17.51;62.75;100093.38;5007821;28;20048;-71
2022/07/05 00:03:23;;;;;;;9.38;3.90;;;;;;;17.44;63.18;100092.13;5007396;28;20072;-71
2022/07/05 00:05:50;;;;;;;6.68;3.97;;;;;;;17.35;63.28;100085.66;5002041;28;20806;-71
2022/07/05 00:08:17;;;;;;;8.07;3.50;;;;;;;17.30;63.78;100092.25;4987784;28;20474;-71
2022/07/05 00:10:43;;;;;;;8.73;4.63;;;;;;;17.21;64.22;100085.81;4994197;28;20048;-71
2022/07/05 00:13:11;;;;;;;8.88;4.40;;;;;;;17.08;64.95;100083.19;5006735;28;20046;-71
2022/07/05 00:15:37;;;;;;;9.32;3.90;;;;;;;16.94;65.68;100080.63;5007832;28;20057;-72
2022/07/05 00:18:04;;;;;;;5.03;3.50;;;;;;;16.84;65.62;100090.25;5007784;28;20046;-72
2022/07/05 00:20:32;;;;;;;7.78;4.35;;;;;;;16.81;65.45;100088.66;5007746;28;20493;-72
2022/07/05 00:22:59;;;;;;;8.43;3.63;;;;;;;16.77;65.55;100088.94;5007397;28;20052;-72
2022/07/05 00:25:25;;;;;;;5.10;3.63;;;;;;;16.71;65.71;100090.19;5007433;28;20048;-71
2022/07/05 00:27:53;;;;;;;7.78;3.10;;;;;;;16.61;65.78;100084.66;5007694;28;20046;-71
2022/07/05 00:30:20;;;;;;;4.65;2.97;;;;;;;16.51;66.34;100092.47;5007726;28;20175;-71
2022/07/05 00:32:46;;;;;;;5.78;3.35;;;;;;;16.42;66.54;100098.41;5006950;28;20153;-71
2022/07/05 00:35:13;;;;;;;7.13;3.20;;;;;;;16.36;66.97;100092.63;5007259;28;20050;-71
2022/07/05 00:37:41;;;;;;;7.25;3.88;;;;;;;16.27;66.95;100091.47;5007318;28;20053;-71
2022/07/05 00:40:09;;;;;;;4.50;3.10;;;;;;;16.21;67.71;100090.06;5007250;28;20046;-71
2022/07/05 00:42:35;;;;;;;4.22;3.58;;;;;;;16.10;67.84;100089.97;5006603;28;20158;-71
2022/07/05 00:45:04;;;;;;;11.60;3.80;;;;;;;15.89;68.69;100089.56;5007146;28;20045;-71
2022/07/05 00:47:31;;;;;;;6.65;3.17;;;;;;;15.77;69.05;100088.56;5007062;28;20963;-71
2022/07/05 00:49:58;;;;;;;3.70;2.72;;;;;;;15.74;69.92;100093.25;5007782;28;20046;-71
2022/07/05 00:52:24;;;;;;;8.48;3.55;;;;;;;15.68;69.41;100087.34;5006355;28;20418;-71
2022/07/05 00:54:53;;;;;;;3.95;3.03;;;;;;;15.67;69.42;100087.44;5006833;28;20042;-71
2022/07/05 00:57:21;;;;;;;8.02;3.80;;;;;;;15.64;69.66;100096.47;5006843;28;20100;-71
2022/07/05 00:59:48;;;;;;;7.93;3.05;;;;;;;15.59;69.71;100095.06;5007335;28;20053;-71
2022/07/05 01:02:14;;;;;;;6.95;3.50;;;;;;;15.55;69.76;100088.25;4989365;28;20457;-71
2022/07/05 01:04:41;;;;;;;4.95;2.92;;;;;;;15.51;69.77;100089.41;5007478;28;20046;-71
2022/07/05 01:07:08;;;;;;;5.47;3.40;;;;;;;15.47;69.87;100094.06;4991982;28;20085;-71
2022/07/05 01:09:35;;;;;;;9.13;3.97;;;;;;;15.35;70.60;100097.50;4989129;28;20050;-71
2022/07/05 01:12:03;;;;;;;7.13;3.47;;;;;;;15.19;71.00;100090.53;4988565;28;20789;-72
2022/07/05 01:14:30;;;;;;;5.47;3.20;;;;;;;15.16;71.12;100092.50;4989577;28;20049;-71
2022/07/05 01:16:56;;;;;;;5.60;2.97;;;;;;;15.17;71.05;100089.75;4989844;28;20524;-71
2022/07/05 01:19:23;;;;;;;3.78;3.03;;;;;;;15.14;71.13;100092.63;4989540;28;20398;-71
2022/07/05 01:21:51;;;;;;;8.15;2.85;;;;;;;15.13;71.13;100090.88;4991344;28;20050;-72
2022/07/05 01:24:19;;;;;;;4.72;3.13;;;;;;;15.13;71.01;100087.38;4991630;28;20113;-72
2022/07/05 01:26:49;;;;;;;5.20;3.67;;;;;;;15.06;71.20;100086.06;4991930;28;20142;-71
2022/07/05 01:29:16;;;;;;;4.85;3.33;;;;;;;14.95;72.00;100089.41;4991656;28;20046;-71
2022/07/05 01:31:43;;;;;;;4.68;3.35;;;;;;;14.96;71.27;100089.31;4991012;28;20042;-71
2022/07/05 01:34:11;;;;;;;6.05;3.42;;;;;;;14.98;71.13;100079.44;4991609;28;20053;-71
2022/07/05 01:36:39;;;;;;;6.32;3.90;;;;;;;14.92;71.45;100089.59;4991569;28;20505;-71
2022/07/05 01:39:07;;;;;;;4.80;3.47;;;;;;;14.87;72.12;100083.72;4991197;28;20046;-71
2022/07/05 01:41:35;;;;;;;7.18;3.75;;;;;;;14.87;72.03;100083.72;4990662;28;20046;-71
2022/07/05 01:44:02;;;;;;;9.57;3.65;;;;;;;14.80;71.36;100086.75;5002153;28;20053;-72
2022/07/05 01:46:32;;;;;;;4.80;3.72;;;;;;;14.74;72.13;100086.28;5010646;28;20057;-71
2022/07/05 01:49:04;;;;;;;4.60;3.60;;;;;;;14.68;72.19;100091.97;5009685;28;20564;-71
2022/07/05 01:51:34;;;;;;;4.80;3.22;;;;;;;14.66;72.55;100084.09;5010732;28;20521;-71
2022/07/05 01:54:01;;;;;;;6.30;3.65;;;;;;;14.65;72.42;100086.84;5010636;28;20077;-72
2022/07/05 01:56:27;;;;;;;4.18;3.28;;;;;;;14.59;72.65;100088.06;5010337;28;20050;-71
2022/07/05 01:58:57;;;;;;;6.32;4.35;;;;;;;14.53;72.66;100086.66;5010459;28;20059;-72
2022/07/05 02:01:35;;;;;;;5.10;3.85;;;;;;;14.53;72.81;100088.41;5010145;28;20052;-72
2022/07/05 02:04:02;;;;;;;6.32;4.13;;;;;;;14.51;72.86;100087.66;5010683;28;20054;-72
2022/07/05 02:06:29;;;;;;;6.05;3.42;;;;;;;14.43;73.32;100087.28;4998912;28;20047;-72
2022/07/05 02:08:55;;;;;;;6.57;4.13;;;;;;;14.33;73.68;100090.47;4990528;28;20065;-72
2022/07/05 02:11:22;;;;;;;5.45;3.17;;;;;;;14.39;73.35;100086.59;4990638;28;20518;-72
2022/07/05 02:13:48;;;;;;;5.60;3.90;;;;;;;14.41;73.12;100079.41;4990135;28;20061;-72
2022/07/05 02:16:16;;;;;;;6.20;3.95;;;;;;;14.38;73.33;100083.09;4990751;28;20082;-71
2022/07/05 02:18:43;;;;;;;5.20;3.17;;;;;;;14.35;73.59;100085.94;4990901;28;20052;-71
2022/07/05 02:21:10;;;;;;;8.05;4.22;;;;;;;14.33;73.37;100086.97;4990878;28;20042;-71
2022/07/05 02:23:36;;;;;;;4.55;3.53;;;;;;;14.29;73.72;100085.44;4989780;28;20125;-72
2022/07/05 02:26:03;;;;;;;4.70;3.45;;;;;;;14.28;73.39;100081.94;4990482;28;20485;-72
2022/07/05 02:28:30;;;;;;;5.07;3.47;;;;;;;14.29;73.23;100083.63;4990175;28;20066;-71
2022/07/05 02:30:56;;;;;;;4.13;3.13;;;;;;;14.26;73.84;100075.88;4990275;28;20052;-72
2022/07/05 02:33:24;;;;;;;9.07;5.10;;;;;;;14.23;73.70;100084.03;4990191;28;20053;-72
2022/07/05 02:35:51;;;;;;;5.47;4.07;;;;;;;14.21;73.63;100085.91;4990481;28;20049;-71
2022/07/05 02:38:17;;;;;;;4.68;3.92;;;;;;;14.15;73.95;100083.59;4990465;28;20429;-71
2022/07/05 02:40:44;;;;;;;6.90;3.60;;;;;;;14.02;74.23;100090.59;5004697;28;20046;-72
2022/07/05 02:43:10;;;;;;;6.38;3.80;;;;;;;14.02;74.89;100075.53;5009155;28;20046;-71
2022/07/05 02:45:37;;;;;;;6.50;3.42;;;;;;;14.04;74.52;100084.25;5009580;28;20041;-72
2022/07/05 02:48:04;;;;;;;6.70;4.50;;;;;;;14.03;74.12;100087.84;5009607;28;20592;-71
2022/07/05 02:50:32;;;;;;;9.05;3.58;;;;;;;14.03;74.44;100093.16;5009541;28;20060;-73
2022/07/05 02:52:59;;;;;;;11.65;4.15;;;;;;;14.01;74.48;100097.69;5009132;28;20049;-72
2022/07/05 02:55:25;;;;;;;5.55;4.07;;;;;;;13.98;74.80;100095.22;5009460;28;20048;-73
2022/07/05 02:57:52;;;;;;;6.93;4.10;;;;;;;13.96;74.71;100102.41;5009391;28;20054;-72
2022/07/05 03:00:18;;;;;;;6.85;3.72;;;;;;;13.95;74.67;100098.91;5009477;28;20052;-71
2022/07/05 03:02:45;;;;;;;12.55;4.55;;;;;;;13.92;74.41;100103.53;5008760;28;20057;-71
2022/07/05 03:05:12;;;;;;;6.45;4.15;;;;;;;13.92;74.36;100100.88;5008682;28;20062;-71
2022/07/05 03:07:39;;;;;;;14.82;5.30;;;;;;;13.82;75.09;100097.91;4990148;28;20493;-71
2022/07/05 03:10:07;;;;;;;8.20;4.35;;;;;;;13.79;75.28;100097.22;4989891;28;20051;-71
2022/07/05 03:12:33;;;;;;;6.53;3.90;;;;;;;13.81;75.02;100101.50;4989304;28;20047;-72
2022/07/05 03:15:00;;;;;;;5.25;3.50;;;;;;;13.84;75.09;100101.31;4989841;28;20502;-71
2022/07/05 03:17:26;;;;;;;8.60;3.90;;;;;;;13.84;75.07;100103.13;4989726;28;20050;-71
2022/07/05 03:19:53;;;;;;;6.43;4.38;;;;;;;13.82;75.32;100105.84;4990011;28;20057;-71
2022/07/05 03:22:19;;;;;;;7.50;3.63;;;;;;;13.81;75.48;100104.16;4989548;28;20050;-72
2022/07/05 03:24:47;;;;;;;7.50;4.50;;;;;;;13.83;75.10;100101.38;4989609;28;20049;-71
2022/07/05 03:27:14;;;;;;;5.22;3.78;;;;;;;13.81;74.89;100098.84;4989849;28;20506;-71
2022/07/05 03:29:41;;;;;;;5.57;3.92;;;;;;;13.81;74.81;100104.16;4990254;28;20042;-71
2022/07/05 03:32:07;;;;;;;6.15;3.80;;;;;;;13.81;75.18;100104.16;4989287;28;20502;-72
2022/07/05 03:34:34;;;;;;;7.72;4.63;;;;;;;13.80;74.74;100107.72;4989515;28;20050;-71
2022/07/05 03:37:00;;;;;;;5.72;4.53;;;;;;;13.69;75.22;100105.69;5004084;28;20046;-71
2022/07/05 03:39:27;;;;;;;7.85;4.25;;;;;;;13.65;75.96;100103.31;5008200;28;20618;-71
2022/07/05 03:41:55;;;;;;;5.68;3.67;;;;;;;13.66;75.28;100103.22;5007530;28;20038;-71
2022/07/05 03:44:22;;;;;;;4.60;4.03;;;;;;;13.68;75.26;100101.34;5008785;28;20084;-71
2022/07/05 03:46:48;;;;;;;12.80;4.35;;;;;;;13.72;75.25;100099.38;5008697;28;20045;-71
2022/07/05 03:49:15;;;;;;;5.72;3.47;;;;;;;13.77;75.16;100107.06;5008169;28;20050;-72
2022/07/05 03:51:42;;;;;;;4.80;3.45;;;;;;;13.79;75.01;100108.69;5008780;28;20148;-72
2022/07/05 03:54:08;;;;;;;6.88;4.32;;;;;;;13.80;75.36;100105.06;5007987;28;20054;-73
2022/07/05 03:56:35;;;;;;;4.45;3.20;;;;;;;13.84;74.88;100103.13;5007194;28;20041;-72
2022/07/05 03:59:03;;;;;;;5.72;4.13;;;;;;;13.88;75.14;100109.94;5007341;28;20046;-71
2022/07/05 04:01:29;;;;;;;7.75;4.18;;;;;;;13.92;74.83;100112.31;5008362;28;20046;-71
2022/07/05 04:03:56;;;;;;;6.35;3.75;;;;;;;13.94;74.44;100109.59;5008044;28;20578;-73
2022/07/05 04:06:22;;;;;;;6.32;4.10;;;;;;;13.99;74.83;100115.47;4997766;28;20194;-72
2022/07/05 04:08:49;;;;;;;4.32;3.20;;;;;;;14.05;74.88;100122.22;4989355;28;20054;-72
2022/07/05 04:11:16;;;;;;;9.32;3.90;;;;;;;14.09;74.90;100115.78;4988436;28;20046;-72
2022/07/05 04:13:43;;;;;;;6.43;3.42;;;;;;;14.12;74.34;100116.44;4987919;28;20050;-73
2022/07/05 04:16:11;;;;;;;9.05;4.10;;;;;;;14.14;74.54;100114.56;4989051;28;20513;-72
2022/07/05 04:18:38;;;;;;;4.30;3.75;;;;;;;14.16;74.80;100109.19;4988786;28;20046;-72
2022/07/05 04:21:05;;;;;;;5.32;3.67;;;;;;;14.18;74.75;100107.31;4988596;28;20046;-72
2022/07/05 04:23:32;;;;;;;4.63;3.47;;;;;;;14.14;74.48;100108.41;4987833;28;20093;-72
2022/07/05 04:26:01;;;;;;;4.50;3.50;;;;;;;14.15;74.43;100120.72;4987959;28;20041;-72
2022/07/05 04:28:29;;;;;;;9.23;4.00;;;;;;;14.16;75.02;100119.78;4988610;28;20047;-72
2022/07/05 04:30:56;;;;;;;5.03;3.75;;;;;;;14.18;74.78;100124.06;4988294;28;20050;-72
2022/07/05 04:33:24;;;;;;;5.53;3.85;;;;;;;14.22;74.50;100130.03;5003164;28;20229;-72
2022/07/05 04:35:50;;;;;;;3.80;3.30;;;;;;;14.23;74.27;100134.41;5007900;28;20053;-73
2022/07/05 04:38:17;;;;;;;5.93;3.42;;;;;;;14.24;73.80;100136.09;5008294;28;20042;-72
2022/07/05 04:40:44;;;;;;;8.85;3.90;;;;;;;14.26;74.00;100136.88;5007880;28;20045;-73
2022/07/05 04:43:10;;;;;;;5.28;3.67;;;;;;;14.27;74.47;100135.91;5007639;28;20046;-73
2022/07/05 04:45:37;;;;;;;7.85;3.92;;;;;;;14.31;74.02;100133.94;5007552;28;20056;-73
2022/07/05 04:48:04;;;;;;;5.65;3.92;;;;;;;14.31;74.27;100137.44;5007805;28;20602;-72
2022/07/05 04:50:32;;;;;;;6.75;3.83;;;;;;;14.31;74.50;100123.34;5006966;28;20053;-72
2022/07/05 04:52:59;;;;;;;5.35;3.42;;;;;;;14.33;74.62;100135.56;5006873;28;20050;-72
2022/07/05 04:55:25;;;;;;;6.68;3.83;;;;;;;14.36;74.89;100130.06;5006595;28;20133;-72
2022/07/05 04:57:52;;;;;;;4.55;3.65;;;;;;;14.44;74.49;100134.91;5007455;28;20042;-73
2022/07/05 05:00:18;;;;;;;5.07;3.63;;;;;;;14.53;74.17;100136.19;5007606;28;20531;-72
2022/07/05 05:02:45;;;;;;;7.32;4.03;;;;;;;14.62;73.99;100134.78;5007032;28;20603;-72
2022/07/05 05:05:12;;;;;;;7.47;3.72;;;;;;;14.69;73.88;100136.97;5007085;28;20057;-72
2022/07/05 05:07:42;;;;;;;7.88;4.28;;;;;;;14.79;73.64;100138.16;4988327;28;20132;-73
2022/07/05 05:10:09;;;;;;;5.60;3.50;;;;;;;14.90;73.55;100137.47;4988063;28;20124;-72
2022/07/05 05:12:36;;;;;;;5.90;3.55;;;;;;;15.01;73.32;100139.44;4987043;28;20047;-73
2022/07/05 05:15:03;;;;;;;6.53;4.60;;;;;;;15.16;73.09;100133.22;4987668;28;20054;-72
2022/07/05 05:17:35;;;;;;;5.78;3.70;;;;;;;15.32;72.65;100129.59;4987810;28;20072;-73
2022/07/05 05:20:02;;;;;;;11.52;4.25;;;;;;;15.42;72.38;100126.22;4987854;28;20038;-70
2022/07/05 05:22:29;;;;;;;5.72;4.00;;;;;;;15.54;71.91;100129.06;4986705;28;20058;-68
2022/07/05 05:24:57;;;;;;;6.15;4.75;;;;;;;15.66;71.57;100121.16;4987537;28;20054;-67
2022/07/05 05:27:23;;;;;;;7.75;4.10;;;;;;;15.77;71.14;100128.44;4987235;28;20065;-68
2022/07/05 05:29:50;;;;;;;8.00;5.20;;;;;;;15.92;70.47;100134.56;5004656;28;20042;-67
2022/07/05 05:32:16;;;;;;;8.00;5.45;;;;;;;16.00;69.74;100126.94;5005882;28;20061;-67
2022/07/05 05:34:43;;;;;;;11.55;4.97;;;;;;;16.17;69.49;100138.25;5007414;28;20073;-69
2022/07/05 05:37:09;;;;;;;5.72;4.90;;;;;;;16.30;69.25;100134.69;5007214;28;20057;-68
2022/07/05 05:39:36;;;;;;;6.05;4.57;;;;;;;16.58;68.49;100139.94;5006790;28;20053;-69
2022/07/05 05:42:05;;;;;;;5.68;4.13;;;;;;;16.68;68.28;100144.50;5005804;28;20042;-69
2022/07/05 05:44:31;;;;;;;5.32;4.05;;;;;;;16.83;67.44;100141.78;5006557;28;20052;-69
2022/07/05 05:46:58;;;;;;;5.80;4.20;;;;;;;17.01;67.22;100147.66;5006829;28;20042;-69
2022/07/05 05:49:24;;;;;;;7.07;3.85;;;;;;;17.17;66.51;100149.09;5006598;28;20050;-69
2022/07/05 05:51:51;;;;;;;7.10;4.18;;;;;;;17.36;66.06;100150.47;5006846;28;20046;-69
2022/07/05 05:54:17;;;;;;;10.38;4.10;;;;;;;17.51;65.42;100151.19;5006421;28;20038;-69
2022/07/05 05:56:44;;;;;;;9.70;3.78;;;;;;;17.85;64.77;100152.25;5005387;28;20476;-69
2022/07/05 05:59:12;;;;;;;7.57;4.43;;;;;;;18.20;63.04;100151.44;5006806;28;20684;-69
2022/07/05 06:01:39;;;;;;;10.52;5.88;;;;;;;18.48;62.21;100152.88;5006842;28;20409;-69
2022/07/05 06:04:05;;;;;;;7.97;4.88;;;;;;;18.56;61.41;100163.00;5006348;28;20686;-69
2022/07/05 06:06:32;;;;;;;12.52;4.97;;;;;;;18.58;61.28;100164.56;4997319;28;20073;-69
2022/07/05 06:08:59;;;;;;;11.43;4.75;;;;;;;18.54;60.99;100165.75;4991089;28;20050;-69
2022/07/05 06:11:25;;;;;;;6.13;4.38;;;;;;;18.60;61.31;100175.13;4990904;28;20077;-69
2022/07/05 06:13:52;;;;;;;7.93;4.03;;;;;;;18.64;60.22;100166.75;4989881;28;20047;-69
2022/07/05 06:16:20;;;;;;;8.63;4.80;;;;;;;18.71;59.71;100171.66;4990383;28;20050;-69
2022/07/05 06:18:46;;;;;;;7.05;4.35;;;;;;;18.76;59.74;100169.50;4990530;28;20125;-69
2022/07/05 06:21:13;;;;;;;8.50;4.38;;;;;;;18.81;58.42;100168.16;4990712;28;20057;-70
2022/07/05 06:23:39;;;;;;;5.03;3.42;;;;;;;18.89;58.38;100172.91;4990044;28;20593;-69
2022/07/05 06:26:06;;;;;;;14.40;5.05;;;;;;;18.95;57.44;100172.44;5007450;28;20049;-70
2022/07/05 06:28:33;;;;;;;6.97;4.32;;;;;;;19.00;56.98;100180.06;5009179;28;20057;-69
2022/07/05 06:30:59;;;;;;;8.77;4.07;;;;;;;19.06;57.34;100175.09;5009370;28;20536;-69
2022/07/05 06:33:28;;;;;;;7.65;4.50;;;;;;;19.07;56.05;100167.94;5008642;28;20049;-69
2022/07/05 06:35:54;;;;;;;5.85;4.13;;;;;;;19.09;54.09;100172.19;5009814;28;20042;-69
2022/07/05 06:38:21;;;;;;;10.55;4.30;;;;;;;19.17;54.65;100166.22;5009264;28;20089;-68
2022/07/05 06:40:48;;;;;;;8.25;4.07;;;;;;;19.29;54.91;100167.94;5009595;28;20428;-69
2022/07/05 06:43:15;;;;;;;5.78;4.38;;;;;;;19.42;53.83;100173.19;5008548;28;20060;-69
2022/07/05 06:45:41;;;;;;;5.95;4.32;;;;;;;19.62;53.34;100170.72;5009918;28;20045;-69
2022/07/05 06:48:10;;;;;;;9.05;4.93;;;;;;;19.70;52.67;100170.97;5009433;28;20045;-69
2022/07/05 06:50:40;;;;;;;5.35;4.45;;;;;;;19.69;52.79;100174.59;5009362;28;20046;-69
2022/07/05 06:53:07;;;;;;;5.18;3.67;;;;;;;19.69;53.03;100177.28;5008472;28;20129;-69
2022/07/05 06:55:34;;;;;;;6.75;4.00;;;;;;;19.75;51.94;100179.47;5009011;28;20509;-69
2022/07/05 06:58:03;;;;;;;6.45;5.15;;;;;;;19.76;52.29;100178.50;5007868;28;20045;-69
2022/07/05 07:00:31;;;;;;;10.82;5.03;;;;;;;19.73;52.88;100170.72;4989516;28;20137;-69
2022/07/05 07:02:57;;;;;;;8.15;5.38;;;;;;;19.58;52.98;100182.63;4988992;28;20125;-69
2022/07/05 07:05:24;;;;;;;11.25;4.53;;;;;;;19.62;53.24;100179.59;4991773;28;20073;-69
2022/07/05 07:10:36;;;;;;;5.70;4.40;;;;;;;19.72;53.07;100180.59;5009817;28;20053;-51
2022/07/05 07:13:03;;;;;;;6.95;4.43;;;;;;;19.94;53.17;100179.69;5008623;28;20042;-52
2022/07/05 07:15:31;;;;;;;8.00;4.70;;;;;;;20.18;52.38;100175.94;5008824;28;20049;-55
2022/07/05 07:17:57;;;;;;;11.25;5.93;;;;;;;20.47;52.25;100186.03;5008190;28;20056;-55
2022/07/05 07:20:24;;;;;;;6.97;4.38;;;;;;;20.65;51.22;100187.22;5008960;28;20060;-48
2022/07/05 07:22:53;;;;;;;5.38;4.20;;;;;;;20.62;50.48;100189.28;5007928;28;20045;-55
2022/07/05 07:25:20;;;;;;;9.50;5.53;;;;;;;20.68;51.33;100186.94;5008519;28;20168;-52
2022/07/05 07:27:49;;;;;;;7.43;4.60;;;;;;;20.89;50.23;100191.44;5008337;28;20468;-46
2022/07/05 07:30:17;;;;;;;10.27;5.63;;;;;;;20.92;49.39;100189.34;5007791;28;20210;-49
2022/07/05 07:32:45;;;;;;;7.53;4.45;;;;;;;20.91;50.06;100192.16;5008617;28;20054;-48
2022/07/05 07:35:12;;;;;;;8.27;4.03;;;;;;;21.23;49.75;100192.88;5008671;28;20054;-47
2022/07/05 07:37:38;;;;;;;6.03;4.20;;;;;;;21.56;48.51;100196.31;5008772;28;20046;-52
2022/07/05 07:40:08;;;;;;;12.82;4.38;;;;;;;21.81;48.25;100200.34;5008519;28;20050;-46
2022/07/05 07:42:34;;;;;;;7.57;4.60;;;;;;;21.71;49.56;100193.22;5007164;28;20493;-45
2022/07/05 07:45:03;;;;;;;7.22;4.22;;;;;;;21.56;50.09;100203.50;5008557;28;20069;-42
2022/07/05 07:47:30;;;;;;;17.92;6.00;;;;;;;21.46;50.73;100208.81;5008869;28;20514;-44
2022/07/05 07:49:56;;;;;;;7.47;4.75;;;;;;;;;;5008678;28;20046;-44
2022/07/05 07:52:22;;;;;;;10.30;3.90;;;;;;;21.27;51.16;100216.78;5005381;28;20501;-49
2022/07/05 07:54:49;;;;;;;7.88;3.60;;;;;;;20.99;51.88;100220.00;5008377;28;20050;-48
2022/07/05 07:57:18;;;;;;;8.57;4.32;;;;;;;20.91;51.54;100211.75;5005845;28;20634;-52
2022/07/05 07:59:45;;;;;;;6.82;4.45;;;;;;;20.95;51.58;100210.53;5007444;28;20100;-44
2022/07/05 08:02:12;;;;;;;7.72;4.68;;;;;;;21.12;50.90;100214.44;5006935;28;20731;-49
2022/07/05 08:04:38;;;;;;;5.93;4.25;;;;;;;21.30;50.43;100211.97;5007738;28;20046;-52
2022/07/05 08:07:05;;;;;;;9.35;4.93;;;;;;;21.46;50.30;100207.97;5006758;28;20042;-47
2022/07/05 08:09:32;;;;;;;8.15;4.43;;;;;;;21.62;49.74;100203.81;5007985;28;20042;-43
2022/07/05 08:11:58;;;;;;;13.15;4.97;;;;;;;21.89;48.88;100213.06;5007824;28;20065;-46
2022/07/05 08:14:26;;;;;;;8.65;5.50;;;;;;;21.91;48.64;100204.88;5006707;28;20378;-50
2022/07/05 08:16:53;;;;;;;8.27;4.55;;;;;;;21.58;49.07;100212.25;5007624;28;20054;-52
2022/07/05 08:22:07;;;;;;;9.27;4.18;;;;;;;21.71;48.26;100209.31;5007751;28;20057;-50
2022/07/05 08:24:35;;;;;;;14.80;4.03;;;;;;;22.00;47.21;100210.28;5006985;28;20108;-51
2022/07/05 08:27:01;;;;;;;8.50;4.85;;;;;;;22.18;46.27;100206.91;5007286;28;20156;-53
2022/07/05 08:29:30;;;;;;;6.60;4.40;;;;;;;22.20;45.40;100204.94;5007279;28;20077;-50
2022/07/05 08:31:57;;;;;;;5.45;4.05;;;;;;;22.23;45.25;100199.31;5007160;28;20041;-56
2022/07/05 08:34:24;;;;;;;5.70;3.92;;;;;;;22.34;45.69;100198.31;5006876;28;20054;-54
2022/07/05 08:36:50;;;;;;;5.25;3.50;;;;;;;22.21;45.03;100207.50;5007403;28;20037;-54
2022/07/05 08:39:17;;;;;;;5.38;3.65;;;;;;;22.05;45.72;100205.34;5006996;28;20049;-55
2022/07/05 08:41:48;;;;;;;6.18;3.33;;;;;;;22.06;44.53;100209.69;5007953;28;20042;-57
2022/07/05 08:44:18;;;;;;;6.43;3.42;;;;;;;22.38;44.58;100205.94;5004051;28;20111;-51
2022/07/05 08:46:47;;;;;;;5.20;3.20;;;;;;;22.55;42.50;100203.53;5004111;28;20071;-52
2022/07/05 08:49:15;;;;;;;9.38;3.67;;;;;;;22.33;42.26;100210.06;5004285;28;20053;-49
2022/07/05 08:51:43;;;;;;;6.78;3.00;;;;;;;22.16;43.21;100204.34;5004897;28;20054;-56
2022/07/05 08:54:11;;;;;;;4.90;3.95;;;;;;;22.41;42.48;100202.13;5003925;28;20056;-71
2022/07/05 08:56:38;;;;;;;8.07;3.63;;;;;;;22.84;40.88;100204.34;5004027;28;20057;-71
2022/07/05 08:59:05;;;;;;;5.03;3.05;;;;;;;22.92;40.11;100203.63;5004256;28;20054;-73
2022/07/05 09:01:34;;;;;;;5.15;2.95;;;;;;;22.83;38.85;100204.50;5004318;28;20150;-73
2022/07/05 09:04:05;;;;;;;6.20;2.22;;;;;;;22.67;39.58;100200.56;5003831;28;20769;-71
2022/07/05 09:06:35;;;;;;;4.38;2.33;;;;;;;23.01;39.13;100199.25;4992345;28;20055;-74
2022/07/05 09:09:03;;;;;;;7.43;2.20;;;;;;;22.54;39.91;100209.91;4984432;28;20054;-72
2022/07/05 09:11:35;;;;;;;4.40;2.08;;;;;;;22.43;41.00;100213.59;4983975;28;20060;-71
2022/07/05 09:14:04;;;;;;;8.93;3.15;;;;;;;22.51;41.32;100216.41;5001256;28;20060;-71
2022/07/05 09:16:31;;;;;;;5.72;2.15;;;;;;;22.45;39.70;100217.81;5004836;28;20054;-71
2022/07/05 09:19:05;;;;;;;5.57;2.42;;;;;;;22.40;39.69;100219.25;5004059;28;20057;-71
2022/07/05 09:21:33;;;;;;;5.25;2.22;;;;;;;22.21;39.68;100218.22;5003794;28;20046;-71
2022/07/05 09:24:01;;;;;;;4.13;2.72;;;;;;;22.35;40.74;100218.78;5003401;28;20056;-71
2022/07/05 09:26:33;;;;;;;4.20;3.10;;;;;;;22.82;40.44;100221.63;5003702;28;20073;-72
2022/07/05 09:29:00;;;;;;;5.05;2.78;;;;;;;22.87;38.72;100216.66;5003772;28;20104;-70
2022/07/05 09:31:29;;;;;;;5.28;2.58;;;;;;;22.77;37.96;100222.06;5001778;28;20077;-73
2022/07/05 09:34:04;;;;;;;5.05;2.80;;;;;;;22.78;38.33;100214.84;5001979;28;20116;-69
2022/07/05 09:36:48;;;;;;;3.90;2.58;;;;;;;24.14;34.93;100207.06;5003771;28;20046;-70
2022/07/05 09:39:14;;;;;;;4.38;2.50;;;;;;;25.15;33.71;100205.88;5003338;28;20046;-71
2022/07/05 09:41:41;;;;;;;4.18;3.20;;;;;;;26.19;32.15;100200.28;5007181;28;20148;-71
2022/07/05 09:44:08;;;;;;;5.28;2.70;;;;;;;27.21;31.46;100198.09;5006557;28;20056;-70
2022/07/05 09:46:34;;;;;;;4.85;3.10;;;;;;;28.08;30.78;100199.91;5008094;28;20052;-72
2022/07/05 09:49:01;;;;;;;5.43;2.70;;;;;;;28.39;29.90;100191.75;5007104;28;20096;-73
2022/07/05 09:51:28;;;;;;;3.38;2.10;;;;;;;28.84;29.26;100190.00;5018144;28;20053;-73
2022/07/05 09:53:58;;;;;;;3.97;2.63;;;;;;;29.48;27.94;100193.06;5009854;28;20150;-71
2022/07/05 09:56:29;;;;;;;4.55;2.42;;;;;;;28.79;28.29;100196.00;5006908;28;20054;-71
2022/07/05 09:58:56;;;;;;;4.20;2.33;;;;;;;28.76;28.26;100200.97;5006831;28;20069;-72
2022/07/05 10:01:26;;;;;;;3.90;2.63;;;;;;;29.13;26.49;100202.81;5006751;28;20097;-71
2022/07/05 10:03:54;;;;;;;4.18;2.50;;;;;;;29.77;26.68;100204.97;5005658;28;20054;-72
2022/07/05 10:06:20;;;;;;;5.53;2.55;;;;;;;30.01;26.15;100203.78;5007044;28;20060;-71
2022/07/05 10:08:49;;;;;;;3.75;2.58;;;;;;;30.08;26.55;100201.16;5007531;28;20061;-72
2022/07/05 10:11:18;;;;;;;4.20;2.25;;;;;;;30.01;26.46;100205.66;5006568;28;20505;-71
2022/07/05 10:13:48;;;;;;;4.65;2.95;;;;;;;28.73;28.02;100201.34;5006701;28;20049;-71
2022/07/05 10:16:16;;;;;;;5.15;2.00;;;;;;;27.55;30.43;100207.78;5007038;28;20440;-72
2022/07/05 10:18:44;;;;;;;3.92;2.03;;;;;;;26.83;31.41;100208.63;5007198;28;20137;-72
2022/07/05 10:21:14;;;;;;;6.85;2.08;;;;;;;26.29;32.28;100208.25;5007123;28;20049;-71
2022/07/05 10:23:44;;;;;;;4.57;1.92;;;;;;;25.67;32.26;100208.53;5006839;28;20052;-71
2022/07/05 10:26:12;;;;;;;5.25;2.72;;;;;;;25.55;32.59;100199.91;5006834;28;20049;-72
2022/07/05 10:28:41;;;;;;;3.70;2.22;;;;;;;27.05;30.85;100206.19;5006504;28;20049;-72
2022/07/05 10:31:09;;;;;;;5.15;3.33;;;;;;;27.99;28.84;100201.84;5006326;28;20505;-72
2022/07/05 10:33:36;;;;;;;7.00;2.70;;;;;;;28.72;27.65;100205.06;5006305;28;20053;-72
2022/07/05 10:36:04;;;;;;;3.40;2.10;;;;;;;28.30;28.53;100201.78;5006473;28;20145;-72
2022/07/05 10:38:31;;;;;;;2.72;1.92;;;;;;;29.22;27.22;100201.72;5006366;28;20131;-70
2022/07/05 10:41:04;;;;;;;3.45;2.03;;;;;;;29.53;26.82;100196.06;5006785;28;20052;-70
2022/07/05 10:43:31;;;;;;;3.78;1.88;;;;;;;28.64;27.47;100195.97;5005824;28;20429;-72
2022/07/05 10:45:59;;;;;;;3.08;1.67;;;;;;;27.43;28.75;100201.06;5005901;28;20045;-71
2022/07/05 10:48:26;;;;;;;4.18;2.63;;;;;;;27.51;28.84;100201.88;5006148;28;20069;-71
2022/07/05 10:50:54;;;;;;;8.55;2.60;;;;;;;28.47;27.90;100206.09;5007132;28;20654;-72
2022/07/05 10:53:23;;;;;;;5.20;2.35;;;;;;;27.55;28.58;100205.09;5004607;28;20050;-72
2022/07/05 10:55:52;;;;;;;3.53;2.08;;;;;;;27.70;28.37;100208.72;5006324;28;20050;-72
2022/07/05 10:58:20;;;;;;;3.72;1.90;;;;;;;28.54;27.53;100205.38;5006012;28;20144;-72
2022/07/05 11:00:48;;;;;;;3.60;2.22;;;;;;;29.14;27.16;100207.19;5005148;28;20485;-72
2022/07/05 11:03:33;;;;;;;3.38;2.28;;;;;;;29.08;27.54;100200.66;5005549;28;20057;-71
2022/07/05 11:06:01;;;;;;;5.80;2.47;;;;;;;28.56;28.05;100204.19;5005944;28;20141;-71
2022/07/05 11:08:27;;;;;;;5.65;2.00;;;;;;;28.06;28.71;100208.25;5006010;28;20049;-72
2022/07/05 11:11:11;;;;;;;4.65;1.73;;;;;;;27.37;29.75;100202.63;5006341;28;20509;-72
2022/07/05 11:13:38;;;;;;;5.15;2.10;;;;;;;26.75;31.25;100204.06;5005316;28;20630;-72
2022/07/05 11:16:30;;;;;;;5.25;3.00;;;;;;;26.50;31.50;100211.28;5005913;28;20081;-71
2022/07/05 11:19:08;;;;;;;5.90;2.08;;;;;;;25.75;33.12;100197.78;4986405;28;20084;-71
2022/07/05 11:21:36;;;;;;;8.23;2.40;;;;;;;25.51;33.61;100200.38;5005834;28;20731;-64
2022/07/05 11:24:19;;;;;;;4.53;2.53;;;;;;;25.66;33.52;100201.47;5003790;28;20045;-61
2022/07/05 11:26:46;;;;;;;4.30;2.40;;;;;;;25.73;33.01;100199.78;5005233;28;20046;-67
2022/07/05 11:29:43;;;;;;;5.20;2.50;;;;;;;25.76;33.25;100194.06;5005253;28;20049;-63
2022/07/05 11:32:13;;;;;;;6.45;3.03;;;;;;;25.78;32.87;100193.91;5005180;28;20050;-63